sensor_id;sensor_type;location;lat;lon;timestamp;pressure;altitude;pressure_sealevel;temperature;humidity
69247;BME280;56358;56.328;43.992;2022-08-27T00:01:38;101431.22;;;18.85;73.29
69247;BME280;56358;56.328;43.992;2022-08-27T00:03:39;101446.78;;;18.92;73.84
69247;BME280;56358;56.328;43.992;2022-08-27T00:05:40;101378.19;;;18.53;74.04
69247;BME280;56358;56.328;43.992;2022-08-27T00:07:41;101445.78;;;18.93;74.47
69247;BME280;56358;56.328;43.992;2022-08-27T00:09:42;101424.50;;;18.79;75.50
69247;BME280;56358;56.328;43.992;2022-08-27T00:11:43;101434.06;;;18.83;75.42
69247;BME280;56358;56.328;43.992;2022-08-27T00:13:45;101440.94;;;18.87;76.03
69247;BME280;56358;56.328;43.992;2022-08-27T00:15:46;101428.25;;;18.78;75.95
69247;BME280;56358;56.328;43.992;2022-08-27T00:17:47;101438.66;;;18.83;76.60
69247;BME280;56358;56.328;43.992;2022-08-27T00:19:48;101414.84;;;18.67;76.94
69247;BME280;56358;56.328;43.992;2022-08-27T00:21:49;101434.13;;;18.73;76.99
69247;BME280;56358;56.328;43.992;2022-08-27T00:23:49;101434.69;;;18.77;77.17
69247;BME280;56358;56.328;43.992;2022-08-27T00:25:50;101432.16;;;18.66;76.46
69247;BME280;56358;56.328;43.992;2022-08-27T00:27:51;101386.97;;;18.37;76.25
69247;BME280;56358;56.328;43.992;2022-08-27T00:29:52;101427.44;;;18.68;75.97
69247;BME280;56358;56.328;43.992;2022-08-27T00:31:53;101373.00;;;18.32;76.35
69247;BME280;56358;56.328;43.992;2022-08-27T00:33:54;101440.31;;;18.66;76.35
69247;BME280;56358;56.328;43.992;2022-08-27T00:35:56;101445.72;;;18.66;76.00
69247;BME280;56358;56.328;43.992;2022-08-27T00:37:57;101432.19;;;18.56;75.75
69247;BME280;56358;56.328;43.992;2022-08-27T00:39:57;101443.16;;;18.64;75.43
69247;BME280;56358;56.328;43.992;2022-08-27T00:41:58;101388.03;;;18.26;74.97
69247;BME280;56358;56.328;43.992;2022-08-27T00:44:00;101447.19;;;18.60;75.07
69247;BME280;56358;56.328;43.992;2022-08-27T00:46:06;101396.59;;;18.31;75.11
69247;BME280;56358;56.328;43.992;2022-08-27T00:48:13;101445.94;;;18.54;74.92
69247;BME280;56358;56.328;43.992;2022-08-27T00:50:19;101402.59;;;18.25;75.14
69247;BME280;56358;56.328;43.992;2022-08-27T00:54:30;101450.63;;;18.52;75.73
69247;BME280;56358;56.328;43.992;2022-08-27T00:56:36;101437.69;;;18.46;75.92
69247;BME280;56358;56.328;43.992;2022-08-27T00:58:43;101385.78;;;18.12;75.92
69247;BME280;56358;56.328;43.992;2022-08-27T01:00:46;101455.53;;;18.49;75.81
69247;BME280;56358;56.328;43.992;2022-08-27T01:02:46;101448.22;;;18.49;75.52
69247;BME280;56358;56.328;43.992;2022-08-27T01:05:03;101452.81;;;18.49;75.50
69247;BME280;56358;56.328;43.992;2022-08-27T01:07:06;101443.53;;;18.41;75.52
69247;BME280;56358;56.328;43.992;2022-08-27T01:09:14;101426.13;;;18.34;75.40
69247;BME280;56358;56.328;43.992;2022-08-27T01:11:16;101375.06;;;18.10;75.38
69247;BME280;56358;56.328;43.992;2022-08-27T01:13:21;101447.38;;;18.49;75.57
69247;BME280;56358;56.328;43.992;2022-08-27T01:15:25;101450.25;;;18.47;76.10
69247;BME280;56358;56.328;43.992;2022-08-27T01:17:27;101452.25;;;18.45;76.36
69247;BME280;56358;56.328;43.992;2022-08-27T01:19:43;101452.56;;;18.42;76.55
69247;BME280;56358;56.328;43.992;2022-08-27T01:21:55;101450.84;;;18.41;76.02
69247;BME280;56358;56.328;43.992;2022-08-27T01:26:07;101396.50;;;18.03;76.07
69247;BME280;56358;56.328;43.992;2022-08-27T01:28:10;101453.69;;;18.30;75.47
69247;BME280;56358;56.328;43.992;2022-08-27T01:30:17;101445.19;;;18.24;75.26
69247;BME280;56358;56.328;43.992;2022-08-27T01:32:21;101436.88;;;18.16;74.96
69247;BME280;56358;56.328;43.992;2022-08-27T01:34:22;101456.16;;;18.33;75.28
69247;BME280;56358;56.328;43.992;2022-08-27T01:36:23;101466.28;;;18.31;75.74
69247;BME280;56358;56.328;43.992;2022-08-27T01:38:25;101462.72;;;18.30;75.59
69247;BME280;56358;56.328;43.992;2022-08-27T01:40:26;101482.56;;;18.31;75.71
69247;BME280;56358;56.328;43.992;2022-08-27T01:42:29;101401.09;;;17.93;75.88
69247;BME280;56358;56.328;43.992;2022-08-27T01:44:41;101439.31;;;18.19;75.88
69247;BME280;56358;56.328;43.992;2022-08-27T01:46:42;101465.28;;;18.32;76.16
69247;BME280;56358;56.328;43.992;2022-08-27T01:48:43;101468.84;;;18.32;76.36
69247;BME280;56358;56.328;43.992;2022-08-27T01:50:44;101462.59;;;18.22;76.01
69247;BME280;56358;56.328;43.992;2022-08-27T01:52:45;101470.00;;;18.30;76.33
69247;BME280;56358;56.328;43.992;2022-08-27T01:54:46;101473.47;;;18.22;76.19
69247;BME280;56358;56.328;43.992;2022-08-27T01:56:47;101428.50;;;18.00;76.05
69247;BME280;56358;56.328;43.992;2022-08-27T01:58:48;101479.00;;;18.30;76.08
69247;BME280;56358;56.328;43.992;2022-08-27T02:00:51;101465.84;;;18.25;76.11
69247;BME280;56358;56.328;43.992;2022-08-27T02:02:53;101478.00;;;18.31;75.82
69247;BME280;56358;56.328;43.992;2022-08-27T02:04:54;101476.00;;;18.33;75.46
69247;BME280;56358;56.328;43.992;2022-08-27T02:06:55;101487.69;;;18.34;75.70
69247;BME280;56358;56.328;43.992;2022-08-27T02:08:56;101485.13;;;18.32;76.30
69247;BME280;56358;56.328;43.992;2022-08-27T02:10:57;101460.00;;;18.20;76.00
69247;BME280;56358;56.328;43.992;2022-08-27T02:12:58;101477.88;;;18.33;75.66
69247;BME280;56358;56.328;43.992;2022-08-27T02:14:59;101468.72;;;18.24;76.06
69247;BME280;56358;56.328;43.992;2022-08-27T02:17:00;101478.13;;;18.30;75.67
69247;BME280;56358;56.328;43.992;2022-08-27T02:19:02;101482.41;;;18.32;75.29
69247;BME280;56358;56.328;43.992;2022-08-27T02:21:03;101478.84;;;18.32;75.04
69247;BME280;56358;56.328;43.992;2022-08-27T02:23:05;101467.00;;;18.23;74.83
69247;BME280;56358;56.328;43.992;2022-08-27T02:25:07;101447.19;;;18.13;74.51
69247;BME280;56358;56.328;43.992;2022-08-27T02:27:09;101473.72;;;18.29;74.24
69247;BME280;56358;56.328;43.992;2022-08-27T02:29:10;101478.28;;;18.28;73.75
69247;BME280;56358;56.328;43.992;2022-08-27T02:31:11;101476.00;;;18.33;73.27
69247;BME280;56358;56.328;43.992;2022-08-27T02:33:12;101485.13;;;18.32;73.44
69247;BME280;56358;56.328;43.992;2022-08-27T02:35:17;101494.31;;;18.31;73.52
69247;BME280;56358;56.328;43.992;2022-08-27T02:37:18;101470.16;;;18.18;73.63
69247;BME280;56358;56.328;43.992;2022-08-27T02:39:19;101491.72;;;18.20;73.81
69247;BME280;56358;56.328;43.992;2022-08-27T02:41:20;101493.00;;;18.25;74.30
69247;BME280;56358;56.328;43.992;2022-08-27T02:43:21;101488.03;;;18.21;74.71
69247;BME280;56358;56.328;43.992;2022-08-27T02:45:22;101502.16;;;18.24;75.38
69247;BME280;56358;56.328;43.992;2022-08-27T02:47:23;101489.75;;;18.22;75.64
69247;BME280;56358;56.328;43.992;2022-08-27T02:49:23;101501.44;;;18.22;75.84
69247;BME280;56358;56.328;43.992;2022-08-27T02:51:24;101438.31;;;17.81;76.02
69247;BME280;56358;56.328;43.992;2022-08-27T02:53:25;101489.72;;;18.12;76.20
69247;BME280;56358;56.328;43.992;2022-08-27T02:55:26;101504.31;;;18.21;76.47
69247;BME280;56358;56.328;43.992;2022-08-27T02:57:27;101498.00;;;18.20;76.42
69247;BME280;56358;56.328;43.992;2022-08-27T02:59:28;101509.16;;;18.17;76.58
69247;BME280;56358;56.328;43.992;2022-08-27T03:01:28;101507.44;;;18.16;76.17
69247;BME280;56358;56.328;43.992;2022-08-27T03:03:30;101501.00;;;18.17;76.54
69247;BME280;56358;56.328;43.992;2022-08-27T03:05:31;101508.47;;;18.15;76.64
69247;BME280;56358;56.328;43.992;2022-08-27T03:07:32;101477.03;;;17.93;76.20
69247;BME280;56358;56.328;43.992;2022-08-27T03:09:32;101507.88;;;18.21;76.09
69247;BME280;56358;56.328;43.992;2022-08-27T03:11:33;101511.31;;;18.23;75.57
69247;BME280;56358;56.328;43.992;2022-08-27T03:13:38;101517.44;;;18.25;76.06
69247;BME280;56358;56.328;43.992;2022-08-27T03:15:39;101511.00;;;18.26;75.59
69247;BME280;56358;56.328;43.992;2022-08-27T03:17:40;101518.72;;;18.31;75.74
69247;BME280;56358;56.328;43.992;2022-08-27T03:19:59;101487.28;;;18.19;76.04
69247;BME280;56358;56.328;43.992;2022-08-27T03:22:01;101519.69;;;18.40;75.83
69247;BME280;56358;56.328;43.992;2022-08-27T03:24:03;101517.56;;;18.43;76.28
69247;BME280;56358;56.328;43.992;2022-08-27T03:26:09;101456.91;;;18.05;76.75
69247;BME280;56358;56.328;43.992;2022-08-27T03:28:11;101515.41;;;18.47;77.08
69247;BME280;56358;56.328;43.992;2022-08-27T03:30:18;101496.09;;;18.40;77.45
69247;BME280;56358;56.328;43.992;2022-08-27T03:32:19;101528.53;;;18.52;78.04
69247;BME280;56358;56.328;43.992;2022-08-27T03:34:20;101520.09;;;18.55;78.33
69247;BME280;56358;56.328;43.992;2022-08-27T03:36:21;101512.97;;;18.54;78.45
69247;BME280;56358;56.328;43.992;2022-08-27T03:38:22;101513.81;;;18.54;78.36
69247;BME280;56358;56.328;43.992;2022-08-27T03:40:22;101515.53;;;18.55;78.77
69247;BME280;56358;56.328;43.992;2022-08-27T03:42:23;101531.66;;;18.67;78.73
69247;BME280;56358;56.328;43.992;2022-08-27T03:44:24;101528.50;;;18.71;78.89
69247;BME280;56358;56.328;43.992;2022-08-27T03:46:24;101513.63;;;18.75;78.70
69247;BME280;56358;56.328;43.992;2022-08-27T03:48:30;101493.63;;;18.67;78.86
69247;BME280;56358;56.328;43.992;2022-08-27T03:50:31;101364.09;;;17.92;78.52
69247;BME280;56358;56.328;43.992;2022-08-27T03:52:33;101450.94;;;18.49;78.40
69247;BME280;56358;56.328;43.992;2022-08-27T03:54:37;101513.72;;;18.93;78.35
69247;BME280;56358;56.328;43.992;2022-08-27T03:56:37;101516.69;;;19.00;78.29
69247;BME280;56358;56.328;43.992;2022-08-27T03:58:40;101520.66;;;19.06;78.11
69247;BME280;56358;56.328;43.992;2022-08-27T04:00:41;101489.81;;;18.97;78.12
69247;BME280;56358;56.328;43.992;2022-08-27T04:02:42;101514.03;;;19.18;78.04
69247;BME280;56358;56.328;43.992;2022-08-27T04:04:43;101519.31;;;19.20;77.80
69247;BME280;56358;56.328;43.992;2022-08-27T04:06:43;101511.94;;;19.30;77.22
69247;BME280;56358;56.328;43.992;2022-08-27T04:08:44;101518.50;;;19.37;76.89
69247;BME280;56358;56.328;43.992;2022-08-27T04:10:45;101504.59;;;19.40;76.49
69247;BME280;56358;56.328;43.992;2022-08-27T04:12:45;101517.84;;;19.53;76.15
69247;BME280;56358;56.328;43.992;2022-08-27T04:14:46;101498.41;;;19.48;75.54
69247;BME280;56358;56.328;43.992;2022-08-27T04:16:49;101515.44;;;19.68;74.76
69247;BME280;56358;56.328;43.992;2022-08-27T04:18:50;101516.69;;;19.74;74.90
69247;BME280;56358;56.328;43.992;2022-08-27T04:20:50;101515.34;;;19.78;74.10
69247;BME280;56358;56.328;43.992;2022-08-27T04:22:54;101513.13;;;19.91;73.91
69247;BME280;56358;56.328;43.992;2022-08-27T04:24:55;101455.91;;;19.65;73.79
69247;BME280;56358;56.328;43.992;2022-08-27T04:26:57;101504.03;;;20.01;73.65
69247;BME280;56358;56.328;43.992;2022-08-27T04:28:59;101498.13;;;20.05;72.89
69247;BME280;56358;56.328;43.992;2022-08-27T04:31:01;101516.84;;;20.26;72.39
69247;BME280;56358;56.328;43.992;2022-08-27T04:33:02;101504.94;;;20.27;72.30
69247;BME280;56358;56.328;43.992;2022-08-27T04:35:04;101496.31;;;20.32;72.52
69247;BME280;56358;56.328;43.992;2022-08-27T04:37:05;101509.88;;;20.50;72.58
69247;BME280;56358;56.328;43.992;2022-08-27T04:39:06;101516.38;;;20.57;72.58
69247;BME280;56358;56.328;43.992;2022-08-27T04:41:09;101501.91;;;20.57;72.41
69247;BME280;56358;56.328;43.992;2022-08-27T04:43:19;101513.41;;;20.69;72.40
69247;BME280;56358;56.328;43.992;2022-08-27T04:45:20;101529.81;;;20.77;72.62
69247;BME280;56358;56.328;43.992;2022-08-27T04:47:20;101533.59;;;20.84;71.79
69247;BME280;56358;56.328;43.992;2022-08-27T04:49:22;101461.75;;;20.59;71.27
69247;BME280;56358;56.328;43.992;2022-08-27T04:51:23;101458.44;;;20.73;70.92
69247;BME280;56358;56.328;43.992;2022-08-27T04:53:24;101512.47;;;21.13;70.65
69247;BME280;56358;56.328;43.992;2022-08-27T04:55:25;101536.03;;;21.30;70.54
69247;BME280;56358;56.328;43.992;2022-08-27T04:57:25;101534.19;;;21.39;69.99
69247;BME280;56358;56.328;43.992;2022-08-27T04:59:27;101469.50;;;21.15;69.44
69247;BME280;56358;56.328;43.992;2022-08-27T05:01:28;101532.00;;;21.51;68.78
69247;BME280;56358;56.328;43.992;2022-08-27T05:03:29;101512.47;;;21.55;68.53
69247;BME280;56358;56.328;43.992;2022-08-27T05:05:30;101491.41;;;21.39;68.16
69247;BME280;56358;56.328;43.992;2022-08-27T05:07:31;101527.66;;;21.74;68.03
69247;BME280;56358;56.328;43.992;2022-08-27T05:09:32;101523.06;;;21.83;67.38
69247;BME280;56358;56.328;43.992;2022-08-27T05:11:33;101522.22;;;21.91;66.25
69247;BME280;56358;56.328;43.992;2022-08-27T05:13:34;101466.09;;;21.64;65.16
69247;BME280;56358;56.328;43.992;2022-08-27T05:15:35;101515.56;;;22.02;64.69
69247;BME280;56358;56.328;43.992;2022-08-27T05:17:36;101529.56;;;22.15;63.85
69247;BME280;56358;56.328;43.992;2022-08-27T05:19:37;101528.38;;;22.26;63.38
69247;BME280;56358;56.328;43.992;2022-08-27T05:21:41;101518.88;;;22.38;63.08
69247;BME280;56358;56.328;43.992;2022-08-27T05:23:44;101523.13;;;22.49;62.62
69247;BME280;56358;56.328;43.992;2022-08-27T05:25:47;101506.53;;;22.51;62.20
69247;BME280;56358;56.328;43.992;2022-08-27T05:27:48;101516.41;;;22.68;61.42
69247;BME280;56358;56.328;43.992;2022-08-27T05:29:49;101517.59;;;22.74;61.37
69247;BME280;56358;56.328;43.992;2022-08-27T05:31:50;101519.09;;;22.85;60.96
69247;BME280;56358;56.328;43.992;2022-08-27T05:33:51;101507.63;;;22.89;60.55
69247;BME280;56358;56.328;43.992;2022-08-27T05:35:54;101463.78;;;22.66;60.66
69247;BME280;56358;56.328;43.992;2022-08-27T05:37:55;101521.91;;;23.08;60.39
69247;BME280;56358;56.328;43.992;2022-08-27T05:39:55;101532.00;;;23.16;59.95
69247;BME280;56358;56.328;43.992;2022-08-27T05:41:56;101523.28;;;23.20;59.81
69247;BME280;56358;56.328;43.992;2022-08-27T05:43:59;101534.53;;;23.25;59.62
69247;BME280;56358;56.328;43.992;2022-08-27T05:46:05;101519.81;;;23.26;59.15
69247;BME280;56358;56.328;43.992;2022-08-27T05:48:07;101469.94;;;23.08;58.87
69247;BME280;56358;56.328;43.992;2022-08-27T05:50:09;101525.50;;;23.48;58.00
69247;BME280;56358;56.328;43.992;2022-08-27T05:52:10;101479.38;;;23.14;57.56
69247;BME280;56358;56.328;43.992;2022-08-27T05:54:11;101536.13;;;23.51;56.92
69247;BME280;56358;56.328;43.992;2022-08-27T05:56:20;101545.13;;;23.60;56.96
69247;BME280;56358;56.328;43.992;2022-08-27T05:58:21;101540.31;;;23.62;56.57
69247;BME280;56358;56.328;43.992;2022-08-27T06:00:40;101486.66;;;23.21;56.82
69247;BME280;56358;56.328;43.992;2022-08-27T06:02:59;101489.84;;;23.33;57.02
69247;BME280;56358;56.328;43.992;2022-08-27T06:04:59;101529.19;;;23.64;57.74
69247;BME280;56358;56.328;43.992;2022-08-27T06:07:00;101531.22;;;23.70;57.59
69247;BME280;56358;56.328;43.992;2022-08-27T06:09:01;101534.28;;;23.75;57.90
69247;BME280;56358;56.328;43.992;2022-08-27T06:11:04;101537.28;;;23.80;57.74
69247;BME280;56358;56.328;43.992;2022-08-27T06:13:05;101530.41;;;23.84;57.25
69247;BME280;56358;56.328;43.992;2022-08-27T06:15:06;101535.22;;;23.90;57.86
69247;BME280;56358;56.328;43.992;2022-08-27T06:17:07;101532.97;;;23.94;58.56
69247;BME280;56358;56.328;43.992;2022-08-27T06:19:08;101484.00;;;23.68;58.63
69247;BME280;56358;56.328;43.992;2022-08-27T06:21:12;101485.34;;;23.72;58.62
69247;BME280;56358;56.328;43.992;2022-08-27T06:23:13;101519.41;;;24.01;58.41
69247;BME280;56358;56.328;43.992;2022-08-27T06:25:14;101535.88;;;24.16;58.01
69247;BME280;56358;56.328;43.992;2022-08-27T06:27:17;101535.59;;;24.25;57.55
69247;BME280;56358;56.328;43.992;2022-08-27T06:29:19;101525.88;;;24.23;57.82
69247;BME280;56358;56.328;43.992;2022-08-27T06:31:23;101541.41;;;24.31;57.75
69247;BME280;56358;56.328;43.992;2022-08-27T06:33:24;101513.81;;;24.32;57.20
69247;BME280;56358;56.328;43.992;2022-08-27T06:35:25;101532.56;;;24.43;57.18
69247;BME280;56358;56.328;43.992;2022-08-27T06:37:25;101525.75;;;24.39;55.04
69247;BME280;56358;56.328;43.992;2022-08-27T06:39:26;101489.03;;;24.25;54.50
69247;BME280;56358;56.328;43.992;2022-08-27T06:41:27;101531.53;;;24.59;53.65
69247;BME280;56358;56.328;43.992;2022-08-27T06:43:28;101531.84;;;24.65;52.51
69247;BME280;56358;56.328;43.992;2022-08-27T06:45:29;101536.19;;;24.74;52.04
69247;BME280;56358;56.328;43.992;2022-08-27T06:47:31;101558.06;;;24.82;50.25
69247;BME280;56358;56.328;43.992;2022-08-27T06:49:32;101526.09;;;24.89;51.62
69247;BME280;56358;56.328;43.992;2022-08-27T06:51:35;101529.56;;;24.98;52.69
69247;BME280;56358;56.328;43.992;2022-08-27T06:53:36;101535.25;;;25.12;53.60
69247;BME280;56358;56.328;43.992;2022-08-27T06:55:42;101534.31;;;25.19;54.04
69247;BME280;56358;56.328;43.992;2022-08-27T06:57:43;101530.31;;;25.22;53.64
69247;BME280;56358;56.328;43.992;2022-08-27T06:59:44;101536.88;;;25.36;52.51
69247;BME280;56358;56.328;43.992;2022-08-27T07:01:48;101536.56;;;25.46;52.31
69247;BME280;56358;56.328;43.992;2022-08-27T07:03:52;101490.97;;;25.30;51.88
69247;BME280;56358;56.328;43.992;2022-08-27T07:05:53;101538.03;;;25.63;52.21
69247;BME280;56358;56.328;43.992;2022-08-27T07:08:03;101540.66;;;25.71;50.02
69247;BME280;56358;56.328;43.992;2022-08-27T07:10:05;101482.22;;;25.41;50.46
69247;BME280;56358;56.328;43.992;2022-08-27T07:12:06;101532.97;;;25.82;50.58
69247;BME280;56358;56.328;43.992;2022-08-27T07:14:07;101540.03;;;25.91;50.17
69247;BME280;56358;56.328;43.992;2022-08-27T07:16:11;101533.38;;;26.00;50.86
69247;BME280;56358;56.328;43.992;2022-08-27T07:18:12;101532.78;;;26.05;51.74
69247;BME280;56358;56.328;43.992;2022-08-27T07:20:14;101479.69;;;25.76;52.64
69247;BME280;56358;56.328;43.992;2022-08-27T07:22:15;101514.31;;;25.99;52.73
69247;BME280;56358;56.328;43.992;2022-08-27T07:24:16;101536.91;;;26.16;52.12
69247;BME280;56358;56.328;43.992;2022-08-27T07:26:19;101527.16;;;26.13;52.92
69247;BME280;56358;56.328;43.992;2022-08-27T07:28:21;101514.84;;;26.09;52.73
69247;BME280;56358;56.328;43.992;2022-08-27T07:30:22;101525.97;;;26.22;52.78
69247;BME280;56358;56.328;43.992;2022-08-27T07:32:22;101520.88;;;26.19;51.65
69247;BME280;56358;56.328;43.992;2022-08-27T07:34:23;101529.44;;;26.31;50.77
69247;BME280;56358;56.328;43.992;2022-08-27T07:36:24;101515.53;;;26.39;50.14
69247;BME280;56358;56.328;43.992;2022-08-27T07:38:24;101530.44;;;26.52;49.62
69247;BME280;56358;56.328;43.992;2022-08-27T07:40:25;101475.75;;;26.35;49.63
69247;BME280;56358;56.328;43.992;2022-08-27T07:42:26;101527.66;;;26.73;49.21
69247;BME280;56358;56.328;43.992;2022-08-27T07:44:47;101524.13;;;26.86;48.79
69247;BME280;56358;56.328;43.992;2022-08-27T07:46:49;101525.22;;;26.92;49.43
69247;BME280;56358;56.328;43.992;2022-08-27T07:48:50;101509.41;;;27.01;47.52
69247;BME280;56358;56.328;43.992;2022-08-27T07:50:52;101520.31;;;27.22;44.78
69247;BME280;56358;56.328;43.992;2022-08-27T07:52:53;101517.56;;;27.29;38.76
69247;BME280;56358;56.328;43.992;2022-08-27T07:54:53;101464.59;;;27.20;37.52
69247;BME280;56358;56.328;43.992;2022-08-27T07:56:54;101520.28;;;27.71;37.69
69247;BME280;56358;56.328;43.992;2022-08-27T07:58:55;101496.53;;;27.76;34.69
69247;BME280;56358;56.328;43.992;2022-08-27T08:00:56;101507.19;;;28.00;33.21
69247;BME280;56358;56.328;43.992;2022-08-27T08:02:57;101515.69;;;28.12;32.40
69247;BME280;56358;56.328;43.992;2022-08-27T08:04:58;101494.50;;;28.12;32.65
69247;BME280;56358;56.328;43.992;2022-08-27T08:06:59;101515.06;;;28.36;33.26
69247;BME280;56358;56.328;43.992;2022-08-27T08:08:59;101513.34;;;28.42;32.70
69247;BME280;56358;56.328;43.992;2022-08-27T08:11:01;101500.81;;;28.46;31.06
69247;BME280;56358;56.328;43.992;2022-08-27T08:13:03;101510.78;;;28.60;31.97
69247;BME280;56358;56.328;43.992;2022-08-27T08:15:07;101504.81;;;28.64;31.49
69247;BME280;56358;56.328;43.992;2022-08-27T08:17:08;101505.88;;;28.76;31.39
69247;BME280;56358;56.328;43.992;2022-08-27T08:19:09;101509.72;;;28.82;30.43
69247;BME280;56358;56.328;43.992;2022-08-27T08:21:12;101505.66;;;28.91;31.11
69247;BME280;56358;56.328;43.992;2022-08-27T08:23:12;101501.78;;;28.99;30.79
69247;BME280;56358;56.328;43.992;2022-08-27T08:25:14;101509.66;;;29.02;31.28
69247;BME280;56358;56.328;43.992;2022-08-27T08:27:15;101471.72;;;28.77;30.73
69247;BME280;56358;56.328;43.992;2022-08-27T08:29:16;101498.59;;;29.08;31.13
69247;BME280;56358;56.328;43.992;2022-08-27T08:31:17;101498.13;;;29.12;31.22
69247;BME280;56358;56.328;43.992;2022-08-27T08:33:17;101469.53;;;28.99;30.91
69247;BME280;56358;56.328;43.992;2022-08-27T08:35:18;101494.91;;;29.28;30.47
69247;BME280;56358;56.328;43.992;2022-08-27T08:37:19;101501.47;;;29.34;31.19
69247;BME280;56358;56.328;43.992;2022-08-27T08:39:19;101500.78;;;29.45;31.43
69247;BME280;56358;56.328;43.992;2022-08-27T08:43:37;101500.25;;;29.62;29.69
69247;BME280;56358;56.328;43.992;2022-08-27T08:45:40;101508.94;;;29.65;29.03
69247;BME280;56358;56.328;43.992;2022-08-27T08:54:51;101444.50;;;29.71;28.62
69247;BME280;56358;56.328;43.992;2022-08-27T08:56:58;101500.00;;;30.02;28.38
69247;BME280;56358;56.328;43.992;2022-08-27T08:59:07;101505.47;;;30.08;28.74
69247;BME280;56358;56.328;43.992;2022-08-27T09:01:09;101492.63;;;30.21;28.54
69247;BME280;56358;56.328;43.992;2022-08-27T09:03:12;101433.94;;;29.93;27.02
69247;BME280;56358;56.328;43.992;2022-08-27T09:05:13;101481.63;;;30.33;26.97
69247;BME280;56358;56.328;43.992;2022-08-27T09:07:28;101452.53;;;30.30;27.05
69247;BME280;56358;56.328;43.992;2022-08-27T09:09:34;101425.25;;;30.34;26.74
69247;BME280;56358;56.328;43.992;2022-08-27T09:11:47;101482.56;;;30.89;27.16
69247;BME280;56358;56.328;43.992;2022-08-27T09:13:57;101474.00;;;31.28;26.45
69247;BME280;56358;56.328;43.992;2022-08-27T09:16:01;101474.34;;;31.50;25.49
69247;BME280;56358;56.328;43.992;2022-08-27T09:18:07;101470.47;;;31.81;25.78
69247;BME280;56358;56.328;43.992;2022-08-27T09:20:09;101421.31;;;31.88;26.10
69247;BME280;56358;56.328;43.992;2022-08-27T09:26:46;101473.91;;;33.19;23.82
69247;BME280;56358;56.328;43.992;2022-08-27T09:28:47;101468.03;;;33.44;23.80
69247;BME280;56358;56.328;43.992;2022-08-27T09:31:11;101437.44;;;33.27;23.64
69247;BME280;56358;56.328;43.992;2022-08-27T09:33:12;101464.72;;;33.76;23.07
69247;BME280;56358;56.328;43.992;2022-08-27T09:35:13;101471.81;;;34.01;23.29
69247;BME280;56358;56.328;43.992;2022-08-27T09:37:22;101463.75;;;34.16;22.10
69247;BME280;56358;56.328;43.992;2022-08-27T09:39:32;101468.53;;;34.38;22.11
69247;BME280;56358;56.328;43.992;2022-08-27T09:41:42;101464.38;;;34.57;21.57
69247;BME280;56358;56.328;43.992;2022-08-27T09:43:55;101463.53;;;34.79;21.56
69247;BME280;56358;56.328;43.992;2022-08-27T09:45:59;101451.31;;;35.02;22.06
69247;BME280;56358;56.328;43.992;2022-08-27T09:48:12;101461.00;;;35.22;22.22
69247;BME280;56358;56.328;43.992;2022-08-27T09:50:16;101465.56;;;35.06;21.41
69247;BME280;56358;56.328;43.992;2022-08-27T09:52:34;101465.47;;;35.23;21.53
69247;BME280;56358;56.328;43.992;2022-08-27T09:54:40;101458.28;;;35.54;21.11
69247;BME280;56358;56.328;43.992;2022-08-27T09:56:48;101451.50;;;35.45;20.86
69247;BME280;56358;56.328;43.992;2022-08-27T09:58:53;101458.13;;;35.66;21.15
69247;BME280;56358;56.328;43.992;2022-08-27T10:01:14;101479.69;;;35.76;20.01
69247;BME280;56358;56.328;43.992;2022-08-27T10:03:20;101465.94;;;35.97;19.98
69247;BME280;56358;56.328;43.992;2022-08-27T10:05:30;101459.97;;;36.20;20.09
69247;BME280;56358;56.328;43.992;2022-08-27T10:07:36;101463.00;;;36.14;19.77
69247;BME280;56358;56.328;43.992;2022-08-27T10:09:44;101459.56;;;36.39;19.63
69247;BME280;56358;56.328;43.992;2022-08-27T10:12:54;101453.69;;;36.40;19.17
69247;BME280;56358;56.328;43.992;2022-08-27T10:14:33;101457.44;;;36.62;19.39
69247;BME280;56358;56.328;43.992;2022-08-27T10:19:04;101424.53;;;36.74;18.25
69247;BME280;56358;56.328;43.992;2022-08-27T10:26:05;101434.66;;;36.90;17.79
69247;BME280;56358;56.328;43.992;2022-08-27T10:30:26;101408.50;;;37.28;18.80
69247;BME280;56358;56.328;43.992;2022-08-27T10:35:12;101452.78;;;37.87;19.51
69247;BME280;56358;56.328;43.992;2022-08-27T10:37:16;101450.22;;;37.91;18.93
69247;BME280;56358;56.328;43.992;2022-08-27T10:42:06;101443.47;;;38.23;18.11
69247;BME280;56358;56.328;43.992;2022-08-27T10:48:47;101451.25;;;38.62;16.96
69247;BME280;56358;56.328;43.992;2022-08-27T10:55:37;101449.53;;;38.71;16.30
69247;BME280;56358;56.328;43.992;2022-08-27T11:04:38;101438.88;;;38.73;17.23
69247;BME280;56358;56.328;43.992;2022-08-27T11:06:53;101385.50;;;38.39;17.32
69247;BME280;56358;56.328;43.992;2022-08-27T11:09:06;101387.47;;;38.33;16.57
69247;BME280;56358;56.328;43.992;2022-08-27T11:11:13;101439.72;;;38.69;18.23
69247;BME280;56358;56.328;43.992;2022-08-27T11:13:33;101440.00;;;38.72;17.77
69247;BME280;56358;56.328;43.992;2022-08-27T11:15:37;101373.78;;;38.11;16.74
69247;BME280;56358;56.328;43.992;2022-08-27T11:22:34;101431.19;;;39.00;16.77
69247;BME280;56358;56.328;43.992;2022-08-27T11:24:42;101442.03;;;39.12;16.89
69247;BME280;56358;56.328;43.992;2022-08-27T11:26:44;101430.63;;;38.98;15.85
69247;BME280;56358;56.328;43.992;2022-08-27T11:29:20;101421.00;;;39.14;16.02
69247;BME280;56358;56.328;43.992;2022-08-27T11:31:59;101420.78;;;39.45;15.27